Sumter, SC (29150)

2:21 PM EDT on September 04, 2015 (GMT -0400)
USC Sumter | | Change Station
CLOSE
Current Station
Personal Weather Station
Location: Sumter, SC
Elevation: 165 ft
Nearby Weather Stations

Elev 165 ft 33.93 °N, 80.37 °W | Updated 4 minutes ago

Clear
Clear
93.4 °F
Feels Like 96 °F
N
3.0
Wind Variable Wind from SSW
Gusts 11.0 mph

Today
High -- | Low -- °F
--% Chance of Precip.
Yesterday
High -- | Low -- °F
Precip. -- in
6:56 AM 7:43 PM
Waning Gibbous, 57% visible
Pressure 29.95 in
Visibility 10.0 miles
Clouds Clear
Heat Index 96 °F
Dew Point 66 °F
Humidity 40%
Rainfall Not available.
Snow Depth Not available.
UV 6.3 out of 12
Pollen 9.00 out of 12
Air Quality Not available.
Flu Activity Not available.
METAR KSSC 041758Z AUTO 04005KT 10SM CLR 33/19 A2995 RMK AO2 SLP141 T03330191 10339 20248 57007 $
Pressure 29.95 in
Visibility 10.0 miles
Clouds Clear
Heat Index 96 °F
Dew Point 66 °F
Humidity 40%
Rainfall Not available.
Snow Depth Not available.
UV 6.3 out of 12
Pollen 9.00 out of 12
Air Quality Not available.
Flu Activity Not available.
METAR KSSC 041758Z AUTO 04005KT 10SM CLR 33/19 A2995 RMK AO2 SLP141 T03330191 10339 20248 57007 $

10-Day Weather Forecast

×

Almanac

Astronomy

Sep. 04, 2015 Rise Set
Actual Time
Civil Twilight
Nautical Twilight
Astronomical Twilight
Moon
Length of Visible Light
Length of Day
Tomorrow will be .
, % of the Moon is Illuminated

Today's Extremes

State Highs State Lows

Community

WunderPhotos

Upload Photos

1,852,251 photos uploaded!

WunderBlogs® & News

Nearby

Air Quality

  Air Quality AQ Index Pollutant
Not available.

Snow Depth

Station Depth Elevation

Earthquake Activity

City Distance Mag. Time & Date
Minimum magnitude displayed is 2.5.

Coastal Water Temperatures

Place Temperature

Stations

Nearby Weather Stations

Station Location Temp. Windchill Dew Point Humidity Wind Precip. Elev Updated Type